Matthews, North Carolina
Current Conditions -  °F | °C
As of 12:53 PM on Thursday 30 Oct 2014 (Local Time) from KEQY Reporting Station
Clear Clear  
Wind Chill: 65°   Ceiling: Unl
Heat Index: 65°   Visibility: 10mi
Dew Point: 36°   Wind: 8mph
Humidity: 34%   Direction: 40°NE
Pressure: 30.04"   Gusts: NA
Location:  35.12°N, 80.72°W
Report Text: KEQY 301653Z AUTO 04007KT 010V070 10SM CLR 18/02 A3004 RMK AO2 SLP176 T01830022 $
Loading
Personal Weather Stations






























Interactive Weather Map
Tropical Storm Tracking
New forecast layout! Learn more

10-Day Weather Forecast

Advertisements
Track Severe Weather on mobile